createdAt,value
2023-02-13T05:10:00.758Z,79.43
2023-02-13T05:14:52.492Z,78.95
2023-02-13T05:19:44.189Z,78.98
2023-02-13T05:24:35.907Z,79.18
2023-02-13T05:29:27.612Z,80.03
2023-02-13T05:34:21.200Z,80.06
2023-02-13T05:39:13.378Z,80.88
2023-02-13T05:44:05.702Z,81.17
2023-02-13T05:48:57.508Z,81.22
2023-02-13T05:53:49.200Z,81.23
2023-02-13T05:58:40.886Z,81.21
2023-02-13T06:03:33.332Z,81.79
2023-02-13T06:08:25.411Z,81.67
2023-02-13T06:13:17.809Z,82.00
2023-02-13T06:18:10.117Z,81.44
2023-02-13T06:23:02.039Z,81.50
2023-02-13T06:27:53.889Z,81.45
2023-02-13T06:32:49.331Z,81.44
2023-02-13T06:37:43.896Z,81.78
2023-02-13T06:42:35.598Z,81.76
2023-02-13T06:47:27.413Z,81.93
2023-02-13T06:52:19.729Z,82.52
2023-02-13T06:57:11.588Z,81.78
2023-02-13T07:02:03.364Z,81.02
2023-02-13T07:06:57.054Z,81.33
2023-02-13T07:11:48.802Z,81.71
2023-02-13T07:16:40.517Z,80.53
2023-02-13T07:21:32.254Z,81.09
2023-02-13T07:26:24.160Z,80.61
2023-02-13T07:31:16.176Z,80.87
2023-02-13T07:36:08.190Z,79.81
2023-02-13T07:41:01.350Z,79.64
2023-02-13T07:45:55.716Z,76.06
2023-02-13T07:50:47.596Z,69.63
2023-02-13T07:55:39.586Z,66.48
2023-02-13T08:00:31.388Z,64.20
2023-02-13T08:05:23.129Z,62.77
2023-02-13T08:10:33.960Z,61.53
2023-02-13T08:15:26.039Z,58.87
2023-02-13T08:20:17.918Z,58.83
2023-02-13T08:25:09.698Z,59.00
2023-02-13T08:30:03.305Z,58.35
2023-02-13T08:34:55.028Z,57.05
2023-02-13T08:39:46.794Z,55.46
2023-02-13T08:44:41.031Z,55.00
2023-02-13T08:49:33.196Z,54.40
2023-02-13T08:54:24.876Z,54.69
2023-02-13T08:59:16.580Z,54.67
2023-02-13T09:04:08.405Z,55.03
2023-02-13T09:09:00.121Z,55.32
2023-02-13T09:13:55.356Z,56.86
2023-02-13T09:18:48.692Z,57.14
2023-02-13T09:23:41.312Z,55.39
2023-02-13T09:28:34.958Z,57.25
2023-02-13T09:33:27.139Z,57.61
2023-02-13T09:38:19.151Z,58.54
2023-02-13T09:43:22.926Z,57.17
2023-02-13T09:48:23.066Z,57.18
2023-02-13T09:53:23.261Z,57.88
2023-02-13T09:58:20.630Z,57.86
2023-02-13T10:03:44.927Z,58.45
2023-02-13T10:08:55.164Z,59.68
2023-02-13T10:14:14.264Z,58.87
2023-02-13T10:19:27.667Z,59.55
2023-02-13T10:24:34.780Z,59.71
2023-02-13T10:30:02.393Z,60.35
2023-02-13T10:34:57.681Z,60.14
2023-02-13T10:39:52.435Z,60.38
2023-02-13T10:44:57.816Z,60.07
2023-02-13T10:50:14.386Z,58.93
2023-02-13T10:55:42.540Z,59.36
2023-02-13T11:00:44.404Z,58.61
2023-02-13T11:05:40.813Z,58.09
2023-02-13T11:10:32.499Z,58.26
2023-02-13T11:15:26.607Z,57.66
2023-02-13T11:20:27.352Z,57.75
2023-02-13T11:25:22.753Z,58.04
2023-02-13T11:30:23.559Z,55.97
2023-02-13T11:35:41.921Z,55.97
2023-02-13T11:40:33.656Z,55.26
2023-02-13T11:45:26.401Z,54.14
2023-02-13T11:50:37.761Z,54.14
2023-02-13T11:55:42.846Z,54.07
2023-02-13T12:00:39.820Z,53.89
2023-02-13T12:05:31.490Z,54.00
2023-02-13T12:10:32.647Z,52.99
2023-02-13T12:15:28.111Z,52.71
2023-02-13T12:20:20.372Z,52.59
2023-02-13T12:25:35.604Z,51.62
2023-02-13T12:31:08.626Z,50.99
2023-02-13T12:36:16.899Z,51.57
2023-02-13T12:41:24.003Z,50.51
2023-02-13T12:46:39.544Z,50.17
2023-02-13T12:51:46.887Z,49.64
2023-02-13T12:56:41.569Z,49.00
2023-02-13T13:01:45.433Z,48.82
2023-02-13T13:07:03.742Z,48.45
2023-02-13T13:12:05.130Z,48.64
2023-02-13T13:17:26.174Z,48.17
2023-02-13T13:22:29.478Z,48.02
2023-02-13T13:27:27.443Z,47.68
2023-02-13T13:32:21.594Z,46.25
2023-02-13T13:37:27.228Z,46.17
2023-02-13T13:42:30.188Z,46.97
2023-02-13T13:47:21.808Z,46.48
2023-02-13T13:52:26.219Z,46.04
2023-02-13T13:57:21.846Z,46.27
2023-02-13T14:02:19.412Z,45.20
2023-02-13T14:07:16.398Z,45.72
2023-02-13T14:12:29.944Z,45.60
2023-02-13T14:17:46.498Z,45.88
2023-02-13T14:22:38.813Z,45.49
2023-02-13T14:27:37.333Z,45.48
2023-02-13T14:32:37.715Z,45.48
2023-02-13T14:37:39.716Z,45.83
2023-02-13T14:42:34.060Z,45.34
2023-02-13T14:47:35.842Z,45.52
2023-02-13T14:52:37.520Z,45.59
2023-02-13T14:57:39.728Z,45.57
2023-02-13T15:02:45.011Z,45.82
2023-02-13T15:07:44.395Z,46.67
2023-02-13T15:12:37.598Z,45.88
2023-02-13T15:17:38.076Z,46.47
2023-02-13T15:22:36.451Z,46.54
2023-02-13T15:27:34.212Z,46.75
2023-02-13T15:32:34.560Z,46.82
2023-02-13T15:37:31.134Z,47.25
2023-02-13T15:42:22.949Z,47.34
2023-02-13T15:47:22.556Z,47.21
2023-02-13T15:52:25.485Z,47.59
2023-02-13T15:57:18.337Z,47.86
2023-02-13T16:02:16.925Z,48.27
2023-02-13T16:07:13.261Z,49.86
2023-02-13T16:12:05.005Z,51.10
2023-02-13T16:17:01.183Z,51.40
2023-02-13T16:21:54.562Z,52.47
2023-02-13T16:26:46.539Z,52.95
2023-02-13T16:31:39.640Z,53.49
2023-02-13T16:36:34.269Z,54.29
2023-02-13T16:41:25.930Z,53.89
2023-02-13T16:46:26.956Z,54.08
2023-02-13T16:51:34.350Z,54.63
2023-02-13T16:56:26.323Z,55.22
2023-02-13T17:01:18.270Z,55.64
2023-02-13T17:06:10.784Z,56.04
2023-02-13T17:11:05.452Z,56.22
2023-02-13T17:15:58.339Z,56.57
2023-02-13T17:20:50.309Z,56.97
2023-02-13T17:25:43.543Z,58.10
2023-02-13T17:30:35.253Z,58.73
2023-02-13T17:35:27.032Z,59.05
2023-02-13T17:40:21.782Z,59.01
2023-02-13T17:45:18.634Z,59.77
2023-02-13T17:50:12.243Z,60.34
2023-02-13T17:55:04.624Z,60.68
2023-02-13T17:59:56.970Z,61.55
2023-02-13T18:04:50.140Z,61.90
2023-02-13T18:09:42.069Z,62.10
2023-02-13T18:14:34.713Z,61.91
2023-02-13T18:19:27.423Z,63.04
2023-02-13T18:24:19.208Z,62.95
2023-02-13T18:29:11.039Z,63.53
2023-02-13T18:34:02.762Z,63.07
2023-02-13T18:38:54.478Z,63.27
2023-02-13T18:43:46.268Z,63.52
2023-02-13T18:48:38.011Z,63.73
2023-02-13T18:53:30.021Z,63.67
2023-02-13T18:58:21.709Z,63.75
2023-02-13T19:03:13.396Z,64.24
2023-02-13T19:08:05.735Z,64.53
2023-02-13T19:12:57.453Z,64.28
2023-02-13T19:17:49.177Z,64.76
2023-02-13T19:22:40.969Z,64.71
2023-02-13T19:27:32.683Z,63.98
2023-02-13T19:32:24.484Z,63.73
2023-02-13T19:37:16.163Z,63.36
2023-02-13T19:42:07.928Z,64.46
2023-02-13T19:46:59.605Z,64.64
2023-02-13T19:51:51.335Z,65.63
2023-02-13T19:56:43.799Z,64.54
2023-02-13T20:01:35.532Z,64.79
2023-02-13T20:06:32.305Z,65.09
2023-02-13T20:11:24.083Z,65.36
2023-02-13T20:16:17.071Z,66.41
2023-02-13T20:21:11.538Z,66.08
2023-02-13T20:26:09.191Z,66.00
2023-02-13T20:31:01.453Z,65.92
2023-02-13T20:35:53.409Z,65.73
2023-02-13T20:40:45.149Z,65.96
2023-02-13T20:45:36.845Z,65.88
2023-02-13T20:50:28.742Z,66.26
2023-02-13T20:55:20.414Z,66.47
2023-02-13T21:00:13.627Z,67.42
2023-02-13T21:05:05.840Z,67.37
2023-02-13T21:09:57.613Z,67.27
2023-02-13T21:14:49.405Z,66.95
2023-02-13T21:19:41.150Z,67.19
2023-02-13T21:24:32.847Z,67.41
2023-02-13T21:29:24.574Z,67.70
2023-02-13T21:34:17.505Z,68.12
2023-02-13T21:39:10.994Z,67.97
2023-02-13T21:44:02.826Z,67.79
2023-02-13T21:48:57.113Z,68.95
2023-02-13T21:53:49.827Z,68.55
2023-02-13T21:58:43.034Z,68.53
2023-02-13T22:03:35.470Z,69.16
2023-02-13T22:08:27.375Z,69.02
2023-02-13T22:13:19.067Z,69.45
2023-02-13T22:18:10.781Z,69.13
2023-02-13T22:23:02.467Z,69.46
2023-02-13T22:27:54.208Z,69.71
2023-02-13T22:32:45.995Z,69.69
2023-02-13T22:37:37.978Z,69.88
2023-02-13T22:42:29.895Z,70.61
2023-02-13T22:47:21.593Z,70.23
2023-02-13T22:52:14.528Z,71.00
2023-02-13T22:57:06.395Z,71.60
2023-02-13T23:01:58.145Z,71.63
2023-02-13T23:06:49.864Z,71.85
2023-02-13T23:12:00.164Z,72.55
2023-02-13T23:17:10.554Z,72.69
2023-02-13T23:22:02.251Z,73.01
2023-02-13T23:26:54.009Z,73.08
2023-02-13T23:31:45.798Z,73.55
2023-02-13T23:36:37.735Z,72.95
2023-02-13T23:41:29.436Z,74.54
2023-02-13T23:46:21.173Z,73.59
2023-02-13T23:51:13.385Z,73.76
2023-02-13T23:56:05.600Z,73.30
